sensor_id;sensor_type;location;lat;lon;timestamp;temperature;humidity
14934;DHT22;7560;51.364;12.384;2022-12-18T00:02:48;-5.50;99.90
14934;DHT22;7560;51.364;12.384;2022-12-18T00:07:50;-5.50;99.90
14934;DHT22;7560;51.364;12.384;2022-12-18T00:12:51;-5.50;99.90
14934;DHT22;7560;51.364;12.384;2022-12-18T00:17:53;-5.60;99.90
14934;DHT22;7560;51.364;12.384;2022-12-18T00:22:55;-5.60;99.90
14934;DHT22;7560;51.364;12.384;2022-12-18T00:27:57;-5.70;99.90
14934;DHT22;7560;51.364;12.384;2022-12-18T00:32:59;-5.60;99.90
14934;DHT22;7560;51.364;12.384;2022-12-18T00:38:00;-5.70;99.90
14934;DHT22;7560;51.364;12.384;2022-12-18T00:43:02;-5.70;99.90
14934;DHT22;7560;51.364;12.384;2022-12-18T00:48:04;-5.90;99.90
14934;DHT22;7560;51.364;12.384;2022-12-18T00:53:06;-5.90;99.90
14934;DHT22;7560;51.364;12.384;2022-12-18T00:58:08;-6.00;99.90
14934;DHT22;7560;51.364;12.384;2022-12-18T01:03:13;-6.00;99.90
14934;DHT22;7560;51.364;12.384;2022-12-18T01:08:15;-6.10;99.90
14934;DHT22;7560;51.364;12.384;2022-12-18T01:13:17;-6.10;99.90
14934;DHT22;7560;51.364;12.384;2022-12-18T01:18:19;-6.10;99.90
14934;DHT22;7560;51.364;12.384;2022-12-18T01:23:20;-6.10;99.90
14934;DHT22;7560;51.364;12.384;2022-12-18T01:28:22;-6.10;99.90
14934;DHT22;7560;51.364;12.384;2022-12-18T01:33:23;-6.10;99.90
14934;DHT22;7560;51.364;12.384;2022-12-18T01:38:25;-6.10;99.90
14934;DHT22;7560;51.364;12.384;2022-12-18T01:49:02;-6.00;99.90
14934;DHT22;7560;51.364;12.384;2022-12-18T01:54:04;-6.00;99.90
14934;DHT22;7560;51.364;12.384;2022-12-18T01:59:08;-6.00;99.90
14934;DHT22;7560;51.364;12.384;2022-12-18T02:04:27;-6.00;99.90
14934;DHT22;7560;51.364;12.384;2022-12-18T02:09:36;-6.00;99.90
14934;DHT22;7560;51.364;12.384;2022-12-18T02:30:21;-6.10;99.90
14934;DHT22;7560;51.364;12.384;2022-12-18T02:35:25;-6.10;99.90
14934;DHT22;7560;51.364;12.384;2022-12-18T02:40:29;-6.20;99.90
14934;DHT22;7560;51.364;12.384;2022-12-18T02:45:31;-6.20;99.90
14934;DHT22;7560;51.364;12.384;2022-12-18T02:50:44;-6.20;99.90
14934;DHT22;7560;51.364;12.384;2022-12-18T03:06:35;-6.30;99.90
14934;DHT22;7560;51.364;12.384;2022-12-18T03:11:41;-6.30;99.90
14934;DHT22;7560;51.364;12.384;2022-12-18T03:17:05;-6.30;99.90
14934;DHT22;7560;51.364;12.384;2022-12-18T03:22:10;-6.30;99.90
14934;DHT22;7560;51.364;12.384;2022-12-18T03:27:15;-6.30;99.90
14934;DHT22;7560;51.364;12.384;2022-12-18T03:32:29;-6.30;99.90
14934;DHT22;7560;51.364;12.384;2022-12-18T03:37:32;-6.30;99.90
14934;DHT22;7560;51.364;12.384;2022-12-18T03:42:46;-6.40;99.90
14934;DHT22;7560;51.364;12.384;2022-12-18T03:58:24;-6.40;99.90
14934;DHT22;7560;51.364;12.384;2022-12-18T04:03:28;-6.40;99.90
14934;DHT22;7560;51.364;12.384;2022-12-18T04:08:32;-6.50;99.90
14934;DHT22;7560;51.364;12.384;2022-12-18T04:13:37;-6.50;99.90
14934;DHT22;7560;51.364;12.384;2022-12-18T04:18:39;-6.40;99.90
14934;DHT22;7560;51.364;12.384;2022-12-18T04:23:41;-6.50;99.90
14934;DHT22;7560;51.364;12.384;2022-12-18T04:28:43;-6.50;99.90
14934;DHT22;7560;51.364;12.384;2022-12-18T04:33:45;-6.40;99.90
14934;DHT22;7560;51.364;12.384;2022-12-18T04:38:47;-6.40;99.90
14934;DHT22;7560;51.364;12.384;2022-12-18T04:43:48;-6.40;99.90
14934;DHT22;7560;51.364;12.384;2022-12-18T04:48:50;-6.40;99.90
14934;DHT22;7560;51.364;12.384;2022-12-18T04:53:52;-6.40;99.90
14934;DHT22;7560;51.364;12.384;2022-12-18T04:58:54;-6.50;99.90
14934;DHT22;7560;51.364;12.384;2022-12-18T05:03:55;-6.50;99.90
14934;DHT22;7560;51.364;12.384;2022-12-18T05:08:57;-6.50;99.90
14934;DHT22;7560;51.364;12.384;2022-12-18T05:13:59;-6.50;99.90
14934;DHT22;7560;51.364;12.384;2022-12-18T05:19:01;-6.50;99.90
14934;DHT22;7560;51.364;12.384;2022-12-18T05:24:03;-6.60;99.90
14934;DHT22;7560;51.364;12.384;2022-12-18T05:29:04;-6.60;99.90
14934;DHT22;7560;51.364;12.384;2022-12-18T05:34:06;-6.70;99.90
14934;DHT22;7560;51.364;12.384;2022-12-18T05:39:09;-6.60;99.90
14934;DHT22;7560;51.364;12.384;2022-12-18T05:44:11;-6.60;99.90
14934;DHT22;7560;51.364;12.384;2022-12-18T05:49:12;-6.60;99.90
14934;DHT22;7560;51.364;12.384;2022-12-18T05:54:14;-6.60;99.90
14934;DHT22;7560;51.364;12.384;2022-12-18T05:59:16;-6.60;99.90
14934;DHT22;7560;51.364;12.384;2022-12-18T06:04:17;-6.70;99.90
14934;DHT22;7560;51.364;12.384;2022-12-18T06:09:19;-6.80;99.90
14934;DHT22;7560;51.364;12.384;2022-12-18T06:14:21;-6.80;99.90
14934;DHT22;7560;51.364;12.384;2022-12-18T06:19:23;-6.80;99.90
14934;DHT22;7560;51.364;12.384;2022-12-18T06:24:24;-6.70;99.90
14934;DHT22;7560;51.364;12.384;2022-12-18T06:29:26;-6.80;99.90
14934;DHT22;7560;51.364;12.384;2022-12-18T06:34:28;-6.80;99.90
14934;DHT22;7560;51.364;12.384;2022-12-18T06:39:30;-6.70;99.90
14934;DHT22;7560;51.364;12.384;2022-12-18T06:44:32;-6.80;99.90
14934;DHT22;7560;51.364;12.384;2022-12-18T06:49:33;-6.80;99.90
14934;DHT22;7560;51.364;12.384;2022-12-18T06:54:35;-6.80;99.90
14934;DHT22;7560;51.364;12.384;2022-12-18T06:59:37;-6.80;99.90
14934;DHT22;7560;51.364;12.384;2022-12-18T07:04:38;-6.90;99.90
14934;DHT22;7560;51.364;12.384;2022-12-18T07:09:40;-7.00;99.90
14934;DHT22;7560;51.364;12.384;2022-12-18T07:14:42;-7.00;99.90
14934;DHT22;7560;51.364;12.384;2022-12-18T07:19:44;-7.00;99.90
14934;DHT22;7560;51.364;12.384;2022-12-18T07:24:46;-6.90;99.90
14934;DHT22;7560;51.364;12.384;2022-12-18T07:29:47;-6.90;99.90
14934;DHT22;7560;51.364;12.384;2022-12-18T07:34:49;-6.90;99.90
14934;DHT22;7560;51.364;12.384;2022-12-18T07:39:51;-6.80;99.90
14934;DHT22;7560;51.364;12.384;2022-12-18T07:44:52;-6.80;99.90
14934;DHT22;7560;51.364;12.384;2022-12-18T07:49:54;-6.80;99.90
14934;DHT22;7560;51.364;12.384;2022-12-18T07:54:56;-6.70;99.90
14934;DHT22;7560;51.364;12.384;2022-12-18T07:59:58;-6.70;99.90
14934;DHT22;7560;51.364;12.384;2022-12-18T08:05:00;-6.60;99.90
14934;DHT22;7560;51.364;12.384;2022-12-18T08:10:02;-6.60;99.90
14934;DHT22;7560;51.364;12.384;2022-12-18T08:15:04;-6.60;99.90
14934;DHT22;7560;51.364;12.384;2022-12-18T08:20:07;-6.60;99.90
14934;DHT22;7560;51.364;12.384;2022-12-18T08:25:09;-6.60;99.90
14934;DHT22;7560;51.364;12.384;2022-12-18T08:30:11;-6.50;99.90
14934;DHT22;7560;51.364;12.384;2022-12-18T08:35:13;-6.40;99.90
14934;DHT22;7560;51.364;12.384;2022-12-18T08:40:19;-6.40;99.90
14934;DHT22;7560;51.364;12.384;2022-12-18T08:45:20;-6.30;99.90
14934;DHT22;7560;51.364;12.384;2022-12-18T08:50:22;-6.30;99.90
14934;DHT22;7560;51.364;12.384;2022-12-18T08:55:24;-6.20;99.90
14934;DHT22;7560;51.364;12.384;2022-12-18T09:00:26;-6.10;99.90
14934;DHT22;7560;51.364;12.384;2022-12-18T09:05:28;-6.10;99.90
14934;DHT22;7560;51.364;12.384;2022-12-18T09:10:29;-6.00;99.90
14934;DHT22;7560;51.364;12.384;2022-12-18T09:15:31;-5.90;99.90
14934;DHT22;7560;51.364;12.384;2022-12-18T09:20:33;-5.80;99.90
14934;DHT22;7560;51.364;12.384;2022-12-18T09:25:36;-5.70;99.90
14934;DHT22;7560;51.364;12.384;2022-12-18T09:30:39;-5.60;99.90
14934;DHT22;7560;51.364;12.384;2022-12-18T09:35:42;-5.60;99.90
14934;DHT22;7560;51.364;12.384;2022-12-18T09:40:46;-5.50;99.90
14934;DHT22;7560;51.364;12.384;2022-12-18T09:45:53;-5.50;99.90
14934;DHT22;7560;51.364;12.384;2022-12-18T09:51:00;-5.40;99.90
14934;DHT22;7560;51.364;12.384;2022-12-18T09:56:05;-5.30;99.90
14934;DHT22;7560;51.364;12.384;2022-12-18T10:01:26;-5.20;99.90
14934;DHT22;7560;51.364;12.384;2022-12-18T10:06:48;-5.10;99.90
14934;DHT22;7560;51.364;12.384;2022-12-18T10:17:40;-4.90;99.90
14934;DHT22;7560;51.364;12.384;2022-12-18T10:22:53;-4.80;99.90
14934;DHT22;7560;51.364;12.384;2022-12-18T10:28:07;-4.70;99.90
14934;DHT22;7560;51.364;12.384;2022-12-18T10:33:22;-4.60;99.90
14934;DHT22;7560;51.364;12.384;2022-12-18T10:38:32;-4.60;99.90
14934;DHT22;7560;51.364;12.384;2022-12-18T10:43:40;-4.50;99.90
14934;DHT22;7560;51.364;12.384;2022-12-18T10:48:54;-4.40;99.90
14934;DHT22;7560;51.364;12.384;2022-12-18T10:54:03;-4.40;99.90
14934;DHT22;7560;51.364;12.384;2022-12-18T10:59:09;-4.40;99.90
14934;DHT22;7560;51.364;12.384;2022-12-18T11:04:19;-4.30;99.90
14934;DHT22;7560;51.364;12.384;2022-12-18T11:09:24;-4.20;99.90
14934;DHT22;7560;51.364;12.384;2022-12-18T11:14:32;-4.20;99.90
14934;DHT22;7560;51.364;12.384;2022-12-18T11:19:36;-4.10;99.90
14934;DHT22;7560;51.364;12.384;2022-12-18T11:24:39;-4.10;99.90
14934;DHT22;7560;51.364;12.384;2022-12-18T11:29:41;-4.00;99.90
14934;DHT22;7560;51.364;12.384;2022-12-18T11:34:51;-3.90;99.90
14934;DHT22;7560;51.364;12.384;2022-12-18T11:40:36;-3.90;99.90
14934;DHT22;7560;51.364;12.384;2022-12-18T11:45:34;-3.80;99.90
14934;DHT22;7560;51.364;12.384;2022-12-18T11:50:54;-3.80;99.90
14934;DHT22;7560;51.364;12.384;2022-12-18T12:12:17;-3.30;99.90
14934;DHT22;7560;51.364;12.384;2022-12-18T12:17:51;-3.10;99.90
14934;DHT22;7560;51.364;12.384;2022-12-18T12:39:14;-3.20;99.90
14934;DHT22;7560;51.364;12.384;2022-12-18T12:44:25;-3.10;99.90
14934;DHT22;7560;51.364;12.384;2022-12-18T12:49:31;-3.00;99.90
14934;DHT22;7560;51.364;12.384;2022-12-18T12:54:41;-3.00;99.90
14934;DHT22;7560;51.364;12.384;2022-12-18T13:10:54;-2.70;99.90
14934;DHT22;7560;51.364;12.384;2022-12-18T13:16:22;-2.60;99.90
14934;DHT22;7560;51.364;12.384;2022-12-18T13:21:32;-2.50;99.90
14934;DHT22;7560;51.364;12.384;2022-12-18T13:26:35;-2.40;99.90
14934;DHT22;7560;51.364;12.384;2022-12-18T13:36:42;-2.40;99.90
14934;DHT22;7560;51.364;12.384;2022-12-18T13:41:46;-2.40;99.90
14934;DHT22;7560;51.364;12.384;2022-12-18T13:46:50;-2.50;99.90
14934;DHT22;7560;51.364;12.384;2022-12-18T13:51:54;-2.60;99.90
14934;DHT22;7560;51.364;12.384;2022-12-18T13:56:56;-2.70;99.90
14934;DHT22;7560;51.364;12.384;2022-12-18T14:02:00;-2.70;99.90
14934;DHT22;7560;51.364;12.384;2022-12-18T14:07:18;-2.70;99.90
14934;DHT22;7560;51.364;12.384;2022-12-18T14:12:29;-2.70;99.90
14934;DHT22;7560;51.364;12.384;2022-12-18T14:28:43;-3.00;99.90
14934;DHT22;7560;51.364;12.384;2022-12-18T14:33:45;-3.20;99.90
14934;DHT22;7560;51.364;12.384;2022-12-18T14:39:01;-3.30;99.90
14934;DHT22;7560;51.364;12.384;2022-12-18T14:44:06;-3.40;99.90
14934;DHT22;7560;51.364;12.384;2022-12-18T14:49:30;-3.50;99.90
14934;DHT22;7560;51.364;12.384;2022-12-18T14:54:35;-3.60;99.90
14934;DHT22;7560;51.364;12.384;2022-12-18T14:59:38;-3.70;99.90
14934;DHT22;7560;51.364;12.384;2022-12-18T15:04:41;-3.80;99.90
14934;DHT22;7560;51.364;12.384;2022-12-18T15:10:11;-3.90;99.90
14934;DHT22;7560;51.364;12.384;2022-12-18T15:25:57;-4.00;99.90
14934;DHT22;7560;51.364;12.384;2022-12-18T15:31:17;-4.00;99.90
14934;DHT22;7560;51.364;12.384;2022-12-18T15:36:23;-3.90;99.90
14934;DHT22;7560;51.364;12.384;2022-12-18T15:41:27;-4.00;99.90
14934;DHT22;7560;51.364;12.384;2022-12-18T15:46:29;-4.00;99.90
14934;DHT22;7560;51.364;12.384;2022-12-18T15:51:34;-4.00;99.90
14934;DHT22;7560;51.364;12.384;2022-12-18T15:56:36;-4.00;99.90
14934;DHT22;7560;51.364;12.384;2022-12-18T16:01:57;-4.00;99.90
14934;DHT22;7560;51.364;12.384;2022-12-18T16:06:59;-4.10;99.90
14934;DHT22;7560;51.364;12.384;2022-12-18T16:12:22;-4.10;99.90
14934;DHT22;7560;51.364;12.384;2022-12-18T16:17:25;-4.10;99.90
14934;DHT22;7560;51.364;12.384;2022-12-18T16:22:30;-4.20;99.90
14934;DHT22;7560;51.364;12.384;2022-12-18T16:27:32;-4.30;99.90
14934;DHT22;7560;51.364;12.384;2022-12-18T16:32:33;-4.30;99.90
14934;DHT22;7560;51.364;12.384;2022-12-18T16:37:35;-4.30;99.90
14934;DHT22;7560;51.364;12.384;2022-12-18T16:42:38;-4.20;99.90
14934;DHT22;7560;51.364;12.384;2022-12-18T16:47:40;-4.00;99.90
14934;DHT22;7560;51.364;12.384;2022-12-18T16:52:42;-4.10;99.90
14934;DHT22;7560;51.364;12.384;2022-12-18T16:57:44;-4.10;99.90
14934;DHT22;7560;51.364;12.384;2022-12-18T17:02:46;-4.00;99.90
14934;DHT22;7560;51.364;12.384;2022-12-18T17:07:49;-4.00;99.90
14934;DHT22;7560;51.364;12.384;2022-12-18T17:12:50;-4.00;99.90
14934;DHT22;7560;51.364;12.384;2022-12-18T17:17:52;-4.00;99.90
14934;DHT22;7560;51.364;12.384;2022-12-18T17:22:55;-3.90;99.90
14934;DHT22;7560;51.364;12.384;2022-12-18T17:27:58;-3.90;99.90
14934;DHT22;7560;51.364;12.384;2022-12-18T17:32:59;-3.70;99.90
14934;DHT22;7560;51.364;12.384;2022-12-18T17:38:01;-3.60;99.90
14934;DHT22;7560;51.364;12.384;2022-12-18T17:43:04;-3.50;99.90
14934;DHT22;7560;51.364;12.384;2022-12-18T17:48:06;-3.50;99.90
14934;DHT22;7560;51.364;12.384;2022-12-18T17:53:08;-3.30;99.90
14934;DHT22;7560;51.364;12.384;2022-12-18T17:58:10;-3.30;99.90
14934;DHT22;7560;51.364;12.384;2022-12-18T18:03:12;-3.30;99.90
14934;DHT22;7560;51.364;12.384;2022-12-18T18:08:14;-3.20;99.90
14934;DHT22;7560;51.364;12.384;2022-12-18T18:13:22;-3.10;99.90
14934;DHT22;7560;51.364;12.384;2022-12-18T18:18:47;-3.00;99.90
14934;DHT22;7560;51.364;12.384;2022-12-18T18:23:49;-3.10;99.90
14934;DHT22;7560;51.364;12.384;2022-12-18T18:28:53;-3.10;99.90
14934;DHT22;7560;51.364;12.384;2022-12-18T18:33:56;-3.10;99.90
14934;DHT22;7560;51.364;12.384;2022-12-18T18:38:58;-3.10;99.90
14934;DHT22;7560;51.364;12.384;2022-12-18T18:44:03;-3.00;99.90
14934;DHT22;7560;51.364;12.384;2022-12-18T18:49:05;-3.00;99.90
14934;DHT22;7560;51.364;12.384;2022-12-18T18:54:08;-3.00;99.90
14934;DHT22;7560;51.364;12.384;2022-12-18T18:59:10;-3.00;99.90
14934;DHT22;7560;51.364;12.384;2022-12-18T19:04:11;-2.90;99.90
14934;DHT22;7560;51.364;12.384;2022-12-18T19:09:13;-2.90;99.90
14934;DHT22;7560;51.364;12.384;2022-12-18T19:14:15;-2.80;99.90
14934;DHT22;7560;51.364;12.384;2022-12-18T19:19:17;-2.70;99.90
14934;DHT22;7560;51.364;12.384;2022-12-18T19:24:24;-2.80;99.90
14934;DHT22;7560;51.364;12.384;2022-12-18T19:29:26;-2.70;99.90
14934;DHT22;7560;51.364;12.384;2022-12-18T19:34:28;-2.70;99.90
14934;DHT22;7560;51.364;12.384;2022-12-18T19:39:30;-2.70;99.90
14934;DHT22;7560;51.364;12.384;2022-12-18T19:44:32;-2.60;99.90
14934;DHT22;7560;51.364;12.384;2022-12-18T19:49:33;-2.60;99.90
14934;DHT22;7560;51.364;12.384;2022-12-18T19:54:35;-2.50;99.90
14934;DHT22;7560;51.364;12.384;2022-12-18T19:59:37;-2.50;99.90
14934;DHT22;7560;51.364;12.384;2022-12-18T20:04:41;-2.50;99.90
14934;DHT22;7560;51.364;12.384;2022-12-18T20:09:42;-2.40;99.90
14934;DHT22;7560;51.364;12.384;2022-12-18T20:14:45;-2.40;99.90
14934;DHT22;7560;51.364;12.384;2022-12-18T20:19:47;-2.30;99.90
14934;DHT22;7560;51.364;12.384;2022-12-18T20:24:49;-2.30;99.90
14934;DHT22;7560;51.364;12.384;2022-12-18T20:29:51;-2.30;99.90
14934;DHT22;7560;51.364;12.384;2022-12-18T20:34:52;-2.30;99.90
14934;DHT22;7560;51.364;12.384;2022-12-18T20:39:54;-2.30;99.90
14934;DHT22;7560;51.364;12.384;2022-12-18T20:44:56;-2.20;99.90
14934;DHT22;7560;51.364;12.384;2022-12-18T20:49:58;-2.10;99.90
14934;DHT22;7560;51.364;12.384;2022-12-18T20:55:03;-2.00;99.90
14934;DHT22;7560;51.364;12.384;2022-12-18T21:00:06;-2.00;99.90
14934;DHT22;7560;51.364;12.384;2022-12-18T21:05:09;-1.90;99.90
14934;DHT22;7560;51.364;12.384;2022-12-18T21:10:11;-1.90;99.90
14934;DHT22;7560;51.364;12.384;2022-12-18T21:15:12;-1.80;99.90
14934;DHT22;7560;51.364;12.384;2022-12-18T21:20:15;-1.90;99.90
14934;DHT22;7560;51.364;12.384;2022-12-18T21:25:19;-1.90;99.90
14934;DHT22;7560;51.364;12.384;2022-12-18T21:30:21;-1.90;99.90
14934;DHT22;7560;51.364;12.384;2022-12-18T21:35:22;-1.70;99.90
14934;DHT22;7560;51.364;12.384;2022-12-18T21:40:27;-1.70;99.90
14934;DHT22;7560;51.364;12.384;2022-12-18T21:45:29;-1.60;99.90
14934;DHT22;7560;51.364;12.384;2022-12-18T21:50:31;-1.50;99.90
14934;DHT22;7560;51.364;12.384;2022-12-18T21:55:32;-1.50;99.90
14934;DHT22;7560;51.364;12.384;2022-12-18T22:00:34;-1.50;99.90
14934;DHT22;7560;51.364;12.384;2022-12-18T22:05:37;-1.50;99.90
14934;DHT22;7560;51.364;12.384;2022-12-18T22:10:39;-1.70;99.90
14934;DHT22;7560;51.364;12.384;2022-12-18T22:15:40;-1.50;99.90
14934;DHT22;7560;51.364;12.384;2022-12-18T22:20:42;-1.60;99.90
14934;DHT22;7560;51.364;12.384;2022-12-18T22:25:44;-1.60;99.90
14934;DHT22;7560;51.364;12.384;2022-12-18T22:30:46;-1.60;99.90
14934;DHT22;7560;51.364;12.384;2022-12-18T22:35:49;-1.70;99.90
14934;DHT22;7560;51.364;12.384;2022-12-18T22:40:51;-1.70;99.90
14934;DHT22;7560;51.364;12.384;2022-12-18T22:45:53;-1.70;99.90
14934;DHT22;7560;51.364;12.384;2022-12-18T22:50:56;-1.50;99.90
14934;DHT22;7560;51.364;12.384;2022-12-18T22:56:00;-1.60;99.90
14934;DHT22;7560;51.364;12.384;2022-12-18T23:01:04;-1.90;99.90
14934;DHT22;7560;51.364;12.384;2022-12-18T23:06:07;-1.80;99.90
14934;DHT22;7560;51.364;12.384;2022-12-18T23:11:11;-1.60;99.90
14934;DHT22;7560;51.364;12.384;2022-12-18T23:16:15;-1.50;99.90
14934;DHT22;7560;51.364;12.384;2022-12-18T23:21:18;-1.50;99.90
14934;DHT22;7560;51.364;12.384;2022-12-18T23:26:23;-1.40;99.90
14934;DHT22;7560;51.364;12.384;2022-12-18T23:31:32;-1.30;99.90
14934;DHT22;7560;51.364;12.384;2022-12-18T23:36:34;-1.60;99.90
14934;DHT22;7560;51.364;12.384;2022-12-18T23:41:47;-1.60;99.90
14934;DHT22;7560;51.364;12.384;2022-12-18T23:46:49;-1.70;99.90
14934;DHT22;7560;51.364;12.384;2022-12-18T23:51:53;-1.60;99.90
14934;DHT22;7560;51.364;12.384;2022-12-18T23:56:55;-1.70;99.90
